sensor_id;sensor_type;location;lat;lon;timestamp;P1;durP1;ratioP1;P2;durP2;ratioP2
46643;SDS011;32371;51.032;5.816;2022-07-22T00:00:57;7.60;;;2.47;;
46643;SDS011;32371;51.032;5.816;2022-07-22T00:03:23;6.68;;;2.30;;
46643;SDS011;32371;51.032;5.816;2022-07-22T00:05:48;6.32;;;2.30;;
46643;SDS011;32371;51.032;5.816;2022-07-22T00:08:14;10.10;;;2.50;;
46643;SDS011;32371;51.032;5.816;2022-07-22T00:10:39;9.27;;;2.17;;
46643;SDS011;32371;51.032;5.816;2022-07-22T00:13:04;10.02;;;1.83;;
46643;SDS011;32371;51.032;5.816;2022-07-22T00:15:30;7.82;;;2.30;;
46643;SDS011;32371;51.032;5.816;2022-07-22T00:17:55;8.52;;;2.45;;
46643;SDS011;32371;51.032;5.816;2022-07-22T00:20:21;6.10;;;2.05;;
46643;SDS011;32371;51.032;5.816;2022-07-22T00:22:46;7.30;;;2.65;;
46643;SDS011;32371;51.032;5.816;2022-07-22T00:25:12;8.60;;;2.08;;
46643;SDS011;32371;51.032;5.816;2022-07-22T00:27:38;5.22;;;2.33;;
46643;SDS011;32371;51.032;5.816;2022-07-22T00:30:03;4.45;;;2.60;;
46643;SDS011;32371;51.032;5.816;2022-07-22T00:32:29;9.23;;;2.42;;
46643;SDS011;32371;51.032;5.816;2022-07-22T00:34:55;6.88;;;2.42;;
46643;SDS011;32371;51.032;5.816;2022-07-22T00:37:20;6.15;;;2.63;;
46643;SDS011;32371;51.032;5.816;2022-07-22T00:39:45;7.70;;;2.08;;
46643;SDS011;32371;51.032;5.816;2022-07-22T00:42:13;6.13;;;1.90;;
46643;SDS011;32371;51.032;5.816;2022-07-22T00:44:38;6.60;;;1.95;;
46643;SDS011;32371;51.032;5.816;2022-07-22T00:47:04;3.90;;;1.60;;
46643;SDS011;32371;51.032;5.816;2022-07-22T00:49:30;4.95;;;2.10;;
46643;SDS011;32371;51.032;5.816;2022-07-22T00:51:55;5.07;;;2.15;;
46643;SDS011;32371;51.032;5.816;2022-07-22T00:54:20;8.38;;;1.88;;
46643;SDS011;32371;51.032;5.816;2022-07-22T00:56:46;3.20;;;2.05;;
46643;SDS011;32371;51.032;5.816;2022-07-22T00:59:11;5.78;;;2.10;;
46643;SDS011;32371;51.032;5.816;2022-07-22T01:01:38;4.53;;;2.00;;
46643;SDS011;32371;51.032;5.816;2022-07-22T01:04:03;5.20;;;2.38;;
46643;SDS011;32371;51.032;5.816;2022-07-22T01:06:29;5.63;;;2.25;;
46643;SDS011;32371;51.032;5.816;2022-07-22T01:08:55;6.45;;;1.95;;
46643;SDS011;32371;51.032;5.816;2022-07-22T01:11:21;3.67;;;1.85;;
46643;SDS011;32371;51.032;5.816;2022-07-22T01:13:47;6.70;;;2.15;;
46643;SDS011;32371;51.032;5.816;2022-07-22T01:16:13;5.80;;;2.15;;
46643;SDS011;32371;51.032;5.816;2022-07-22T01:18:39;4.95;;;2.60;;
46643;SDS011;32371;51.032;5.816;2022-07-22T01:21:05;6.80;;;2.30;;
46643;SDS011;32371;51.032;5.816;2022-07-22T01:23:31;4.70;;;2.15;;
46643;SDS011;32371;51.032;5.816;2022-07-22T01:25:57;5.95;;;2.30;;
46643;SDS011;32371;51.032;5.816;2022-07-22T01:28:23;4.00;;;1.95;;
46643;SDS011;32371;51.032;5.816;2022-07-22T01:30:48;3.53;;;2.28;;
46643;SDS011;32371;51.032;5.816;2022-07-22T01:33:15;9.88;;;1.95;;
46643;SDS011;32371;51.032;5.816;2022-07-22T01:35:41;9.35;;;1.77;;
46643;SDS011;32371;51.032;5.816;2022-07-22T01:38:07;5.00;;;2.10;;
46643;SDS011;32371;51.032;5.816;2022-07-22T01:40:32;4.47;;;1.90;;
46643;SDS011;32371;51.032;5.816;2022-07-22T01:42:58;3.75;;;2.10;;
46643;SDS011;32371;51.032;5.816;2022-07-22T01:45:23;7.75;;;2.30;;
46643;SDS011;32371;51.032;5.816;2022-07-22T01:47:49;6.25;;;2.65;;
46643;SDS011;32371;51.032;5.816;2022-07-22T01:50:14;7.93;;;3.28;;
46643;SDS011;32371;51.032;5.816;2022-07-22T01:52:40;6.22;;;2.97;;
46643;SDS011;32371;51.032;5.816;2022-07-22T01:55:06;10.95;;;2.50;;
46643;SDS011;32371;51.032;5.816;2022-07-22T01:57:32;10.23;;;2.25;;
46643;SDS011;32371;51.032;5.816;2022-07-22T01:59:57;5.95;;;2.20;;
46643;SDS011;32371;51.032;5.816;2022-07-22T02:02:23;3.72;;;2.28;;
46643;SDS011;32371;51.032;5.816;2022-07-22T02:04:48;13.60;;;2.22;;
46643;SDS011;32371;51.032;5.816;2022-07-22T02:07:13;3.88;;;2.15;;
46643;SDS011;32371;51.032;5.816;2022-07-22T02:09:39;3.42;;;2.42;;
46643;SDS011;32371;51.032;5.816;2022-07-22T02:12:04;3.25;;;1.77;;
46643;SDS011;32371;51.032;5.816;2022-07-22T02:14:30;4.75;;;2.58;;
46643;SDS011;32371;51.032;5.816;2022-07-22T02:16:55;4.72;;;2.08;;
46643;SDS011;32371;51.032;5.816;2022-07-22T02:19:21;3.22;;;1.83;;
46643;SDS011;32371;51.032;5.816;2022-07-22T02:21:46;7.30;;;2.47;;
46643;SDS011;32371;51.032;5.816;2022-07-22T02:24:12;3.70;;;1.92;;
46643;SDS011;32371;51.032;5.816;2022-07-22T02:26:37;3.60;;;1.85;;
46643;SDS011;32371;51.032;5.816;2022-07-22T02:29:03;6.95;;;3.00;;
46643;SDS011;32371;51.032;5.816;2022-07-22T02:31:28;6.60;;;1.90;;
46643;SDS011;32371;51.032;5.816;2022-07-22T02:33:54;5.80;;;2.08;;
46643;SDS011;32371;51.032;5.816;2022-07-22T02:36:19;2.65;;;1.83;;
46643;SDS011;32371;51.032;5.816;2022-07-22T02:38:45;5.53;;;1.85;;
46643;SDS011;32371;51.032;5.816;2022-07-22T02:41:10;4.40;;;1.60;;
46643;SDS011;32371;51.032;5.816;2022-07-22T02:43:35;5.28;;;1.88;;
46643;SDS011;32371;51.032;5.816;2022-07-22T02:46:01;4.43;;;2.20;;
46643;SDS011;32371;51.032;5.816;2022-07-22T02:48:27;2.30;;;1.75;;
46643;SDS011;32371;51.032;5.816;2022-07-22T02:50:52;2.72;;;1.63;;
46643;SDS011;32371;51.032;5.816;2022-07-22T02:53:18;5.55;;;1.88;;
46643;SDS011;32371;51.032;5.816;2022-07-22T02:55:43;6.57;;;2.38;;
46643;SDS011;32371;51.032;5.816;2022-07-22T02:58:08;5.25;;;1.90;;
46643;SDS011;32371;51.032;5.816;2022-07-22T03:00:37;5.80;;;3.38;;
46643;SDS011;32371;51.032;5.816;2022-07-22T03:03:05;5.45;;;1.63;;
46643;SDS011;32371;51.032;5.816;2022-07-22T03:05:31;6.65;;;2.95;;
46643;SDS011;32371;51.032;5.816;2022-07-22T03:07:56;7.00;;;2.88;;
46643;SDS011;32371;51.032;5.816;2022-07-22T03:10:21;7.95;;;2.60;;
46643;SDS011;32371;51.032;5.816;2022-07-22T03:12:47;6.30;;;1.60;;
46643;SDS011;32371;51.032;5.816;2022-07-22T03:15:12;5.82;;;1.90;;
46643;SDS011;32371;51.032;5.816;2022-07-22T03:17:38;5.03;;;1.48;;
46643;SDS011;32371;51.032;5.816;2022-07-22T03:20:07;3.55;;;2.33;;
46643;SDS011;32371;51.032;5.816;2022-07-22T03:22:34;3.55;;;2.38;;
46643;SDS011;32371;51.032;5.816;2022-07-22T03:24:59;5.82;;;2.22;;
46643;SDS011;32371;51.032;5.816;2022-07-22T03:27:25;9.30;;;2.40;;
46643;SDS011;32371;51.032;5.816;2022-07-22T03:29:50;3.83;;;1.85;;
46643;SDS011;32371;51.032;5.816;2022-07-22T03:32:16;5.28;;;2.20;;
46643;SDS011;32371;51.032;5.816;2022-07-22T03:34:41;2.28;;;1.83;;
46643;SDS011;32371;51.032;5.816;2022-07-22T03:37:06;3.55;;;2.33;;
46643;SDS011;32371;51.032;5.816;2022-07-22T03:39:32;4.53;;;2.88;;
46643;SDS011;32371;51.032;5.816;2022-07-22T03:41:57;2.67;;;2.22;;
46643;SDS011;32371;51.032;5.816;2022-07-22T03:44:23;8.18;;;3.72;;
46643;SDS011;32371;51.032;5.816;2022-07-22T03:46:48;5.25;;;2.17;;
46643;SDS011;32371;51.032;5.816;2022-07-22T03:49:13;4.97;;;1.90;;
46643;SDS011;32371;51.032;5.816;2022-07-22T03:51:39;2.90;;;2.05;;
46643;SDS011;32371;51.032;5.816;2022-07-22T03:54:04;3.92;;;2.03;;
46643;SDS011;32371;51.032;5.816;2022-07-22T03:56:30;3.35;;;1.75;;
46643;SDS011;32371;51.032;5.816;2022-07-22T03:58:56;3.30;;;1.83;;
46643;SDS011;32371;51.032;5.816;2022-07-22T04:01:21;6.68;;;1.88;;
46643;SDS011;32371;51.032;5.816;2022-07-22T04:03:46;2.63;;;1.70;;
46643;SDS011;32371;51.032;5.816;2022-07-22T04:06:13;5.60;;;1.70;;
46643;SDS011;32371;51.032;5.816;2022-07-22T04:08:39;5.47;;;2.08;;
46643;SDS011;32371;51.032;5.816;2022-07-22T04:11:04;5.35;;;1.90;;
46643;SDS011;32371;51.032;5.816;2022-07-22T04:13:30;5.25;;;1.83;;
46643;SDS011;32371;51.032;5.816;2022-07-22T04:15:55;2.95;;;1.48;;
46643;SDS011;32371;51.032;5.816;2022-07-22T04:18:20;6.80;;;3.00;;
46643;SDS011;32371;51.032;5.816;2022-07-22T04:20:46;5.45;;;2.28;;
46643;SDS011;32371;51.032;5.816;2022-07-22T04:23:11;5.95;;;2.00;;
46643;SDS011;32371;51.032;5.816;2022-07-22T04:25:37;3.33;;;1.95;;
46643;SDS011;32371;51.032;5.816;2022-07-22T04:28:03;3.92;;;2.03;;
46643;SDS011;32371;51.032;5.816;2022-07-22T04:30:28;11.40;;;2.45;;
46643;SDS011;32371;51.032;5.816;2022-07-22T04:32:54;4.78;;;1.85;;
46643;SDS011;32371;51.032;5.816;2022-07-22T04:35:19;2.78;;;1.38;;
46643;SDS011;32371;51.032;5.816;2022-07-22T04:37:44;3.75;;;1.75;;
46643;SDS011;32371;51.032;5.816;2022-07-22T04:40:10;10.68;;;2.05;;
46643;SDS011;32371;51.032;5.816;2022-07-22T04:42:36;3.40;;;1.70;;
46643;SDS011;32371;51.032;5.816;2022-07-22T04:45:02;6.68;;;1.73;;
46643;SDS011;32371;51.032;5.816;2022-07-22T04:47:28;3.45;;;1.58;;
46643;SDS011;32371;51.032;5.816;2022-07-22T04:49:53;3.67;;;1.30;;
46643;SDS011;32371;51.032;5.816;2022-07-22T04:52:18;4.30;;;1.65;;
46643;SDS011;32371;51.032;5.816;2022-07-22T04:54:44;4.22;;;1.80;;
46643;SDS011;32371;51.032;5.816;2022-07-22T04:57:13;2.45;;;1.52;;
46643;SDS011;32371;51.032;5.816;2022-07-22T04:59:48;5.55;;;2.53;;
46643;SDS011;32371;51.032;5.816;2022-07-22T05:02:14;3.33;;;1.60;;
46643;SDS011;32371;51.032;5.816;2022-07-22T05:04:39;5.32;;;1.60;;
46643;SDS011;32371;51.032;5.816;2022-07-22T05:07:04;2.90;;;1.80;;
46643;SDS011;32371;51.032;5.816;2022-07-22T05:09:30;6.35;;;1.42;;
46643;SDS011;32371;51.032;5.816;2022-07-22T05:11:55;3.67;;;1.85;;
46643;SDS011;32371;51.032;5.816;2022-07-22T05:14:21;7.03;;;2.50;;
46643;SDS011;32371;51.032;5.816;2022-07-22T05:16:46;5.65;;;1.73;;
46643;SDS011;32371;51.032;5.816;2022-07-22T05:19:11;9.65;;;2.17;;
46643;SDS011;32371;51.032;5.816;2022-07-22T05:21:37;5.47;;;1.90;;
46643;SDS011;32371;51.032;5.816;2022-07-22T05:24:02;7.93;;;2.53;;
46643;SDS011;32371;51.032;5.816;2022-07-22T05:26:28;4.00;;;2.53;;
46643;SDS011;32371;51.032;5.816;2022-07-22T05:28:55;7.60;;;2.25;;
46643;SDS011;32371;51.032;5.816;2022-07-22T05:31:20;9.63;;;2.70;;
46643;SDS011;32371;51.032;5.816;2022-07-22T05:33:46;6.50;;;2.70;;
46643;SDS011;32371;51.032;5.816;2022-07-22T05:36:11;2.20;;;1.30;;
46643;SDS011;32371;51.032;5.816;2022-07-22T05:38:36;4.38;;;1.55;;
46643;SDS011;32371;51.032;5.816;2022-07-22T05:41:02;2.83;;;1.65;;
46643;SDS011;32371;51.032;5.816;2022-07-22T05:43:27;2.55;;;1.67;;
46643;SDS011;32371;51.032;5.816;2022-07-22T05:45:53;3.85;;;1.48;;
46643;SDS011;32371;51.032;5.816;2022-07-22T05:48:19;4.68;;;1.63;;
46643;SDS011;32371;51.032;5.816;2022-07-22T05:50:44;4.28;;;1.80;;
46643;SDS011;32371;51.032;5.816;2022-07-22T05:53:09;5.25;;;1.98;;
46643;SDS011;32371;51.032;5.816;2022-07-22T05:55:35;8.23;;;1.88;;
46643;SDS011;32371;51.032;5.816;2022-07-22T05:58:00;2.72;;;1.58;;
46643;SDS011;32371;51.032;5.816;2022-07-22T06:00:26;4.63;;;2.50;;
46643;SDS011;32371;51.032;5.816;2022-07-22T06:02:51;4.32;;;1.80;;
46643;SDS011;32371;51.032;5.816;2022-07-22T06:05:17;4.68;;;1.95;;
46643;SDS011;32371;51.032;5.816;2022-07-22T06:07:43;6.32;;;2.10;;
46643;SDS011;32371;51.032;5.816;2022-07-22T06:10:08;9.80;;;2.42;;
46643;SDS011;32371;51.032;5.816;2022-07-22T06:12:33;6.38;;;1.98;;
46643;SDS011;32371;51.032;5.816;2022-07-22T06:14:59;7.18;;;2.13;;
46643;SDS011;32371;51.032;5.816;2022-07-22T06:17:24;5.63;;;2.03;;
46643;SDS011;32371;51.032;5.816;2022-07-22T06:19:50;6.28;;;1.85;;
46643;SDS011;32371;51.032;5.816;2022-07-22T06:22:15;7.07;;;2.10;;
46643;SDS011;32371;51.032;5.816;2022-07-22T06:24:42;6.45;;;2.40;;
46643;SDS011;32371;51.032;5.816;2022-07-22T06:27:08;5.20;;;2.20;;
46643;SDS011;32371;51.032;5.816;2022-07-22T06:29:33;9.20;;;2.60;;
46643;SDS011;32371;51.032;5.816;2022-07-22T06:31:59;4.53;;;1.95;;
46643;SDS011;32371;51.032;5.816;2022-07-22T06:34:24;4.30;;;1.65;;
46643;SDS011;32371;51.032;5.816;2022-07-22T06:36:50;4.32;;;1.77;;
46643;SDS011;32371;51.032;5.816;2022-07-22T06:39:15;5.40;;;2.22;;
46643;SDS011;32371;51.032;5.816;2022-07-22T06:41:40;4.57;;;2.03;;
46643;SDS011;32371;51.032;5.816;2022-07-22T06:44:06;5.80;;;2.35;;
46643;SDS011;32371;51.032;5.816;2022-07-22T06:46:31;6.65;;;2.70;;
46643;SDS011;32371;51.032;5.816;2022-07-22T06:48:56;5.82;;;2.13;;
46643;SDS011;32371;51.032;5.816;2022-07-22T06:51:22;4.55;;;1.90;;
46643;SDS011;32371;51.032;5.816;2022-07-22T06:53:47;4.28;;;1.98;;
46643;SDS011;32371;51.032;5.816;2022-07-22T06:56:13;3.85;;;2.05;;
46643;SDS011;32371;51.032;5.816;2022-07-22T06:58:38;5.40;;;2.35;;
46643;SDS011;32371;51.032;5.816;2022-07-22T07:01:03;8.27;;;2.17;;
46643;SDS011;32371;51.032;5.816;2022-07-22T07:03:29;4.53;;;1.67;;
46643;SDS011;32371;51.032;5.816;2022-07-22T07:05:54;5.03;;;2.35;;
46643;SDS011;32371;51.032;5.816;2022-07-22T07:08:20;8.30;;;1.50;;
46643;SDS011;32371;51.032;5.816;2022-07-22T07:10:45;4.95;;;2.33;;
46643;SDS011;32371;51.032;5.816;2022-07-22T07:13:10;9.23;;;2.25;;
46643;SDS011;32371;51.032;5.816;2022-07-22T07:15:36;4.82;;;1.90;;
46643;SDS011;32371;51.032;5.816;2022-07-22T07:18:01;3.25;;;1.42;;
46643;SDS011;32371;51.032;5.816;2022-07-22T07:20:27;4.32;;;1.83;;
46643;SDS011;32371;51.032;5.816;2022-07-22T07:22:53;5.78;;;2.15;;
46643;SDS011;32371;51.032;5.816;2022-07-22T07:25:18;3.72;;;1.95;;
46643;SDS011;32371;51.032;5.816;2022-07-22T07:27:44;4.97;;;1.33;;
46643;SDS011;32371;51.032;5.816;2022-07-22T07:30:09;2.28;;;1.10;;
46643;SDS011;32371;51.032;5.816;2022-07-22T07:32:36;3.38;;;1.10;;
46643;SDS011;32371;51.032;5.816;2022-07-22T07:35:03;5.13;;;1.02;;
46643;SDS011;32371;51.032;5.816;2022-07-22T07:37:29;3.63;;;1.38;;
46643;SDS011;32371;51.032;5.816;2022-07-22T07:39:55;5.15;;;1.20;;
46643;SDS011;32371;51.032;5.816;2022-07-22T07:42:20;1.63;;;0.80;;
46643;SDS011;32371;51.032;5.816;2022-07-22T07:44:45;6.82;;;1.30;;
46643;SDS011;32371;51.032;5.816;2022-07-22T07:47:11;3.95;;;1.73;;
46643;SDS011;32371;51.032;5.816;2022-07-22T07:49:38;5.05;;;2.08;;
46643;SDS011;32371;51.032;5.816;2022-07-22T07:52:03;2.75;;;1.83;;
46643;SDS011;32371;51.032;5.816;2022-07-22T07:54:29;6.45;;;3.03;;
46643;SDS011;32371;51.032;5.816;2022-07-22T07:56:54;5.65;;;3.83;;
46643;SDS011;32371;51.032;5.816;2022-07-22T07:59:19;9.55;;;3.20;;
46643;SDS011;32371;51.032;5.816;2022-07-22T08:01:45;4.18;;;2.58;;
46643;SDS011;32371;51.032;5.816;2022-07-22T08:04:10;13.70;;;4.65;;
46643;SDS011;32371;51.032;5.816;2022-07-22T08:06:36;7.88;;;4.15;;
46643;SDS011;32371;51.032;5.816;2022-07-22T08:09:01;7.22;;;3.92;;
46643;SDS011;32371;51.032;5.816;2022-07-22T08:11:27;6.25;;;3.42;;
46643;SDS011;32371;51.032;5.816;2022-07-22T08:13:52;7.15;;;3.53;;
46643;SDS011;32371;51.032;5.816;2022-07-22T08:16:17;6.10;;;3.75;;
46643;SDS011;32371;51.032;5.816;2022-07-22T08:18:43;8.02;;;4.30;;
46643;SDS011;32371;51.032;5.816;2022-07-22T08:21:08;10.63;;;4.20;;
46643;SDS011;32371;51.032;5.816;2022-07-22T08:23:34;8.73;;;3.72;;
46643;SDS011;32371;51.032;5.816;2022-07-22T08:25:59;7.45;;;3.97;;
46643;SDS011;32371;51.032;5.816;2022-07-22T08:28:25;6.32;;;3.45;;
46643;SDS011;32371;51.032;5.816;2022-07-22T08:30:51;9.50;;;3.58;;
46643;SDS011;32371;51.032;5.816;2022-07-22T08:33:16;7.57;;;3.35;;
46643;SDS011;32371;51.032;5.816;2022-07-22T08:35:42;6.25;;;3.13;;
46643;SDS011;32371;51.032;5.816;2022-07-22T08:38:07;6.13;;;3.10;;
46643;SDS011;32371;51.032;5.816;2022-07-22T08:40:33;7.57;;;3.65;;
46643;SDS011;32371;51.032;5.816;2022-07-22T08:42:58;4.32;;;3.13;;
46643;SDS011;32371;51.032;5.816;2022-07-22T08:45:28;6.45;;;2.53;;
46643;SDS011;32371;51.032;5.816;2022-07-22T08:47:54;5.65;;;2.85;;
46643;SDS011;32371;51.032;5.816;2022-07-22T08:50:19;4.63;;;2.38;;
46643;SDS011;32371;51.032;5.816;2022-07-22T08:52:45;5.47;;;2.65;;
46643;SDS011;32371;51.032;5.816;2022-07-22T08:55:10;3.47;;;2.33;;
46643;SDS011;32371;51.032;5.816;2022-07-22T08:57:36;8.48;;;2.30;;
46643;SDS011;32371;51.032;5.816;2022-07-22T09:00:11;3.25;;;1.75;;
46643;SDS011;32371;51.032;5.816;2022-07-22T09:02:39;6.45;;;1.88;;
46643;SDS011;32371;51.032;5.816;2022-07-22T09:05:06;3.50;;;2.08;;
46643;SDS011;32371;51.032;5.816;2022-07-22T09:07:33;4.50;;;2.78;;
46643;SDS011;32371;51.032;5.816;2022-07-22T09:10:02;6.00;;;2.22;;
46643;SDS011;32371;51.032;5.816;2022-07-22T09:12:30;3.00;;;2.00;;
46643;SDS011;32371;51.032;5.816;2022-07-22T09:14:57;3.85;;;2.42;;
46643;SDS011;32371;51.032;5.816;2022-07-22T09:17:27;3.03;;;2.05;;
46643;SDS011;32371;51.032;5.816;2022-07-22T09:19:58;6.05;;;2.35;;
46643;SDS011;32371;51.032;5.816;2022-07-22T09:22:34;2.05;;;1.85;;
46643;SDS011;32371;51.032;5.816;2022-07-22T09:25:24;6.05;;;2.35;;
46643;SDS011;32371;51.032;5.816;2022-07-22T09:30:30;3.75;;;2.17;;
46643;SDS011;32371;51.032;5.816;2022-07-22T09:32:56;5.60;;;2.28;;
46643;SDS011;32371;51.032;5.816;2022-07-22T09:35:22;3.92;;;2.33;;
46643;SDS011;32371;51.032;5.816;2022-07-22T09:42:53;4.30;;;2.30;;
46643;SDS011;32371;51.032;5.816;2022-07-22T09:45:28;3.40;;;1.83;;
46643;SDS011;32371;51.032;5.816;2022-07-22T09:47:56;5.05;;;1.88;;
46643;SDS011;32371;51.032;5.816;2022-07-22T09:50:23;4.65;;;1.90;;
46643;SDS011;32371;51.032;5.816;2022-07-22T09:52:50;4.55;;;2.20;;
46643;SDS011;32371;51.032;5.816;2022-07-22T09:55:17;5.03;;;2.10;;
46643;SDS011;32371;51.032;5.816;2022-07-22T09:57:43;6.32;;;2.10;;
46643;SDS011;32371;51.032;5.816;2022-07-22T10:00:10;5.28;;;2.35;;
46643;SDS011;32371;51.032;5.816;2022-07-22T10:02:39;2.30;;;2.10;;
46643;SDS011;32371;51.032;5.816;2022-07-22T10:05:08;2.78;;;1.85;;
46643;SDS011;32371;51.032;5.816;2022-07-22T10:07:34;4.20;;;1.55;;
46643;SDS011;32371;51.032;5.816;2022-07-22T10:10:00;3.08;;;2.10;;
46643;SDS011;32371;51.032;5.816;2022-07-22T10:12:25;5.05;;;2.13;;
46643;SDS011;32371;51.032;5.816;2022-07-22T10:14:52;8.25;;;2.78;;
46643;SDS011;32371;51.032;5.816;2022-07-22T10:17:17;6.13;;;2.10;;
46643;SDS011;32371;51.032;5.816;2022-07-22T10:19:43;6.07;;;2.72;;
46643;SDS011;32371;51.032;5.816;2022-07-22T10:25:08;3.65;;;2.20;;
46643;SDS011;32371;51.032;5.816;2022-07-22T10:33:01;2.20;;;1.75;;
46643;SDS011;32371;51.032;5.816;2022-07-22T10:35:27;2.83;;;1.77;;
46643;SDS011;32371;51.032;5.816;2022-07-22T10:37:54;2.88;;;1.92;;
46643;SDS011;32371;51.032;5.816;2022-07-22T10:40:31;3.35;;;1.83;;
46643;SDS011;32371;51.032;5.816;2022-07-22T10:43:11;5.78;;;1.88;;
46643;SDS011;32371;51.032;5.816;2022-07-22T10:45:50;4.45;;;2.63;;
46643;SDS011;32371;51.032;5.816;2022-07-22T10:59:08;4.03;;;1.77;;
46643;SDS011;32371;51.032;5.816;2022-07-22T11:01:41;4.75;;;2.40;;
46643;SDS011;32371;51.032;5.816;2022-07-22T11:04:08;3.92;;;1.67;;
46643;SDS011;32371;51.032;5.816;2022-07-22T11:06:35;5.00;;;2.13;;
46643;SDS011;32371;51.032;5.816;2022-07-22T11:09:02;3.20;;;2.20;;
46643;SDS011;32371;51.032;5.816;2022-07-22T11:16:38;2.55;;;2.15;;
46643;SDS011;32371;51.032;5.816;2022-07-22T11:19:04;3.47;;;2.00;;
46643;SDS011;32371;51.032;5.816;2022-07-22T11:21:31;3.05;;;2.05;;
46643;SDS011;32371;51.032;5.816;2022-07-22T11:23:58;7.05;;;3.15;;
46643;SDS011;32371;51.032;5.816;2022-07-22T11:26:34;5.53;;;1.90;;
46643;SDS011;32371;51.032;5.816;2022-07-22T11:29:00;2.45;;;2.25;;
46643;SDS011;32371;51.032;5.816;2022-07-22T11:31:26;3.40;;;2.20;;
46643;SDS011;32371;51.032;5.816;2022-07-22T11:33:51;5.45;;;2.42;;
46643;SDS011;32371;51.032;5.816;2022-07-22T11:36:16;3.33;;;1.88;;
46643;SDS011;32371;51.032;5.816;2022-07-22T11:38:49;4.78;;;2.20;;
46643;SDS011;32371;51.032;5.816;2022-07-22T11:41:16;2.78;;;1.70;;
46643;SDS011;32371;51.032;5.816;2022-07-22T11:43:46;3.72;;;2.20;;
46643;SDS011;32371;51.032;5.816;2022-07-22T11:46:13;3.10;;;2.60;;
46643;SDS011;32371;51.032;5.816;2022-07-22T11:48:40;3.40;;;2.20;;
46643;SDS011;32371;51.032;5.816;2022-07-22T11:51:07;3.58;;;2.20;;
46643;SDS011;32371;51.032;5.816;2022-07-22T11:53:35;4.00;;;2.03;;
46643;SDS011;32371;51.032;5.816;2022-07-22T11:56:02;3.28;;;2.40;;
46643;SDS011;32371;51.032;5.816;2022-07-22T12:01:15;4.20;;;1.75;;
46643;SDS011;32371;51.032;5.816;2022-07-22T12:03:44;3.63;;;2.00;;
46643;SDS011;32371;51.032;5.816;2022-07-22T12:06:11;3.20;;;2.10;;
46643;SDS011;32371;51.032;5.816;2022-07-22T12:08:42;2.33;;;1.90;;
46643;SDS011;32371;51.032;5.816;2022-07-22T12:11:10;3.92;;;2.08;;
46643;SDS011;32371;51.032;5.816;2022-07-22T12:13:36;4.75;;;1.83;;
46643;SDS011;32371;51.032;5.816;2022-07-22T12:21:19;2.30;;;1.60;;
46643;SDS011;32371;51.032;5.816;2022-07-22T12:23:56;4.00;;;1.77;;
46643;SDS011;32371;51.032;5.816;2022-07-22T12:26:39;3.50;;;1.80;;
46643;SDS011;32371;51.032;5.816;2022-07-22T12:29:12;2.25;;;1.85;;
46643;SDS011;32371;51.032;5.816;2022-07-22T12:31:54;3.22;;;1.50;;
46643;SDS011;32371;51.032;5.816;2022-07-22T12:34:32;2.78;;;2.10;;
46643;SDS011;32371;51.032;5.816;2022-07-22T12:42:28;3.17;;;2.10;;
46643;SDS011;32371;51.032;5.816;2022-07-22T12:47:51;4.32;;;2.10;;
46643;SDS011;32371;51.032;5.816;2022-07-22T12:52:54;5.00;;;2.30;;
46643;SDS011;32371;51.032;5.816;2022-07-22T12:55:29;2.38;;;1.77;;
46643;SDS011;32371;51.032;5.816;2022-07-22T12:57:54;4.07;;;2.40;;
46643;SDS011;32371;51.032;5.816;2022-07-22T13:00:23;5.25;;;2.50;;
46643;SDS011;32371;51.032;5.816;2022-07-22T13:02:53;4.43;;;2.13;;
46643;SDS011;32371;51.032;5.816;2022-07-22T13:05:20;4.45;;;2.30;;
46643;SDS011;32371;51.032;5.816;2022-07-22T13:07:46;4.80;;;2.15;;
46643;SDS011;32371;51.032;5.816;2022-07-22T13:10:12;3.53;;;1.98;;
46643;SDS011;32371;51.032;5.816;2022-07-22T13:12:39;4.13;;;2.63;;
46643;SDS011;32371;51.032;5.816;2022-07-22T13:15:04;4.10;;;2.78;;
46643;SDS011;32371;51.032;5.816;2022-07-22T13:17:30;3.25;;;2.20;;
46643;SDS011;32371;51.032;5.816;2022-07-22T13:19:56;3.92;;;2.67;;
46643;SDS011;32371;51.032;5.816;2022-07-22T13:22:21;5.25;;;2.22;;
46643;SDS011;32371;51.032;5.816;2022-07-22T13:24:46;3.83;;;2.20;;
46643;SDS011;32371;51.032;5.816;2022-07-22T13:27:12;2.45;;;1.88;;
46643;SDS011;32371;51.032;5.816;2022-07-22T13:29:37;3.13;;;2.22;;
46643;SDS011;32371;51.032;5.816;2022-07-22T13:32:03;3.83;;;3.00;;
46643;SDS011;32371;51.032;5.816;2022-07-22T13:34:29;4.72;;;2.28;;
46643;SDS011;32371;51.032;5.816;2022-07-22T13:36:54;2.85;;;2.30;;
46643;SDS011;32371;51.032;5.816;2022-07-22T13:39:20;5.13;;;2.38;;
46643;SDS011;32371;51.032;5.816;2022-07-22T13:41:47;3.13;;;1.48;;
46643;SDS011;32371;51.032;5.816;2022-07-22T13:44:12;2.20;;;2.00;;
46643;SDS011;32371;51.032;5.816;2022-07-22T13:46:37;2.40;;;1.85;;
46643;SDS011;32371;51.032;5.816;2022-07-22T13:49:03;3.88;;;1.90;;
46643;SDS011;32371;51.032;5.816;2022-07-22T13:51:28;3.90;;;2.05;;
46643;SDS011;32371;51.032;5.816;2022-07-22T13:53:53;4.22;;;2.97;;
46643;SDS011;32371;51.032;5.816;2022-07-22T13:56:19;6.13;;;2.72;;
46643;SDS011;32371;51.032;5.816;2022-07-22T13:58:44;4.63;;;2.70;;
46643;SDS011;32371;51.032;5.816;2022-07-22T14:01:10;3.95;;;2.45;;
46643;SDS011;32371;51.032;5.816;2022-07-22T14:03:36;4.03;;;2.40;;
46643;SDS011;32371;51.032;5.816;2022-07-22T14:06:03;3.28;;;2.15;;
46643;SDS011;32371;51.032;5.816;2022-07-22T14:08:29;6.25;;;2.28;;
46643;SDS011;32371;51.032;5.816;2022-07-22T14:10:54;4.38;;;3.05;;
46643;SDS011;32371;51.032;5.816;2022-07-22T14:13:20;4.28;;;1.90;;
46643;SDS011;32371;51.032;5.816;2022-07-22T14:15:45;6.68;;;2.40;;
46643;SDS011;32371;51.032;5.816;2022-07-22T14:18:10;3.95;;;2.40;;
46643;SDS011;32371;51.032;5.816;2022-07-22T14:20:36;2.20;;;2.00;;
46643;SDS011;32371;51.032;5.816;2022-07-22T14:23:02;2.75;;;2.50;;
46643;SDS011;32371;51.032;5.816;2022-07-22T14:25:29;4.47;;;2.38;;
46643;SDS011;32371;51.032;5.816;2022-07-22T14:27:54;4.47;;;2.33;;
46643;SDS011;32371;51.032;5.816;2022-07-22T14:30:20;3.97;;;2.42;;
46643;SDS011;32371;51.032;5.816;2022-07-22T14:32:45;2.45;;;1.50;;
46643;SDS011;32371;51.032;5.816;2022-07-22T14:35:11;2.55;;;1.75;;
46643;SDS011;32371;51.032;5.816;2022-07-22T14:37:41;4.20;;;1.92;;
46643;SDS011;32371;51.032;5.816;2022-07-22T14:40:08;5.63;;;2.15;;
46643;SDS011;32371;51.032;5.816;2022-07-22T14:42:33;3.85;;;2.38;;
46643;SDS011;32371;51.032;5.816;2022-07-22T14:44:59;2.50;;;1.90;;
46643;SDS011;32371;51.032;5.816;2022-07-22T14:47:24;4.03;;;1.80;;
46643;SDS011;32371;51.032;5.816;2022-07-22T14:49:50;3.92;;;1.95;;
46643;SDS011;32371;51.032;5.816;2022-07-22T14:52:15;4.05;;;2.50;;
46643;SDS011;32371;51.032;5.816;2022-07-22T14:54:40;3.75;;;1.95;;
46643;SDS011;32371;51.032;5.816;2022-07-22T14:57:06;5.93;;;1.92;;
46643;SDS011;32371;51.032;5.816;2022-07-22T14:59:32;3.28;;;2.15;;
46643;SDS011;32371;51.032;5.816;2022-07-22T15:01:58;3.97;;;2.10;;
46643;SDS011;32371;51.032;5.816;2022-07-22T15:04:23;6.78;;;2.08;;
46643;SDS011;32371;51.032;5.816;2022-07-22T15:06:48;6.72;;;2.40;;
46643;SDS011;32371;51.032;5.816;2022-07-22T15:09:14;4.10;;;1.98;;
46643;SDS011;32371;51.032;5.816;2022-07-22T15:11:39;2.72;;;1.95;;
46643;SDS011;32371;51.032;5.816;2022-07-22T15:14:04;4.95;;;2.33;;
46643;SDS011;32371;51.032;5.816;2022-07-22T15:16:30;3.38;;;1.92;;
46643;SDS011;32371;51.032;5.816;2022-07-22T15:18:55;3.47;;;2.30;;
46643;SDS011;32371;51.032;5.816;2022-07-22T15:21:21;3.05;;;2.13;;
46643;SDS011;32371;51.032;5.816;2022-07-22T15:23:46;2.83;;;1.90;;
46643;SDS011;32371;51.032;5.816;2022-07-22T15:26:13;5.65;;;1.90;;
46643;SDS011;32371;51.032;5.816;2022-07-22T15:28:38;4.20;;;2.00;;
46643;SDS011;32371;51.032;5.816;2022-07-22T15:31:04;3.33;;;1.90;;
46643;SDS011;32371;51.032;5.816;2022-07-22T15:33:30;2.78;;;1.80;;